createdAt,value
2017-10-03T00:00:44.946Z,5.96
2017-10-03T00:03:26.292Z,6.62
2017-10-03T00:05:54.543Z,7.06
2017-10-03T00:08:22.822Z,8.54
2017-10-03T00:10:51.098Z,7.22
2017-10-03T00:13:23.063Z,7.86
2017-10-03T00:15:51.331Z,7.64
2017-10-03T00:18:19.609Z,7.18
2017-10-03T00:20:48.886Z,8.40
2017-10-03T00:23:17.140Z,6.94
2017-10-03T00:25:52.620Z,8.30
2017-10-03T00:28:20.871Z,6.68
2017-10-03T00:30:49.155Z,7.10
2017-10-03T00:33:22.668Z,7.88
2017-10-03T00:35:50.976Z,6.50
2017-10-03T00:38:26.615Z,6.76
2017-10-03T00:40:54.921Z,7.58
2017-10-03T00:43:29.686Z,6.32
2017-10-03T00:45:57.943Z,7.06
2017-10-03T00:48:26.234Z,7.78
2017-10-03T00:50:54.492Z,6.96
2017-10-03T00:53:30.192Z,8.00
2017-10-03T00:55:59.403Z,7.74
2017-10-03T00:58:28.674Z,8.08
2017-10-03T01:00:56.940Z,8.92
2017-10-03T01:03:37.646Z,8.30
2017-10-03T01:06:05.938Z,8.62
2017-10-03T01:08:48.304Z,8.32
2017-10-03T01:11:16.594Z,9.00
2017-10-03T01:13:47.950Z,8.28
2017-10-03T01:16:16.241Z,7.52
2017-10-03T01:18:46.498Z,8.84
2017-10-03T01:21:14.788Z,9.38
2017-10-03T01:24:06.204Z,8.62
2017-10-03T01:26:34.846Z,8.18
2017-10-03T01:29:04.230Z,9.66
2017-10-03T01:31:35.076Z,9.08
2017-10-03T01:34:04.722Z,7.60
2017-10-03T01:36:34.084Z,8.10
2017-10-03T01:39:23.802Z,8.60
2017-10-03T01:41:52.083Z,7.90
2017-10-03T01:44:20.370Z,8.72
2017-10-03T01:46:48.663Z,9.24
2017-10-03T01:49:16.923Z,9.16
2017-10-03T01:51:45.183Z,7.96
2017-10-03T01:54:14.408Z,8.00
2017-10-03T01:56:42.713Z,7.64
2017-10-03T01:59:21.187Z,8.28
2017-10-03T02:01:49.478Z,9.72
2017-10-03T02:04:21.538Z,7.82
2017-10-03T02:06:49.787Z,8.30
2017-10-03T02:09:28.291Z,7.88
2017-10-03T02:11:56.576Z,8.58
2017-10-03T02:14:24.860Z,7.40
2017-10-03T02:16:53.156Z,6.78
2017-10-03T02:19:25.582Z,7.24
2017-10-03T02:21:53.862Z,6.74
2017-10-03T02:24:33.218Z,7.26
2017-10-03T02:27:01.484Z,6.90
2017-10-03T02:29:29.784Z,6.76
2017-10-03T02:31:58.050Z,9.22
2017-10-03T02:34:49.250Z,8.58
2017-10-03T02:37:16.780Z,6.92
2017-10-03T02:39:55.235Z,5.62
2017-10-03T02:42:23.496Z,8.64
2017-10-03T02:44:52.734Z,6.92
2017-10-03T02:47:21.031Z,6.86
2017-10-03T02:49:52.720Z,6.22
2017-10-03T02:52:21.008Z,6.58
2017-10-03T02:54:49.271Z,5.32
2017-10-03T02:57:17.576Z,6.82
2017-10-03T03:00:00.968Z,5.90
2017-10-03T03:02:29.255Z,5.84
2017-10-03T03:07:51.513Z,6.24
2017-10-03T03:10:19.855Z,5.36
2017-10-03T03:15:51.858Z,5.64
2017-10-03T03:18:20.110Z,6.32
2017-10-03T03:20:48.358Z,5.64
2017-10-03T03:23:27.407Z,6.66
2017-10-03T03:25:55.687Z,7.38
2017-10-03T03:28:24.981Z,6.64
2017-10-03T03:30:53.235Z,6.50
2017-10-03T03:33:34.531Z,5.90
2017-10-03T03:36:02.810Z,6.18
2017-10-03T03:38:33.994Z,6.98
2017-10-03T03:41:03.615Z,7.28
2017-10-03T03:43:33.502Z,5.70
2017-10-03T03:46:02.763Z,7.52
2017-10-03T03:48:34.067Z,5.18
2017-10-03T03:51:03.676Z,6.12
2017-10-03T03:53:34.351Z,7.44
2017-10-03T03:56:02.674Z,6.96
2017-10-03T03:58:32.096Z,5.98
2017-10-03T04:01:01.052Z,6.86
2017-10-03T04:03:37.674Z,6.20
2017-10-03T04:06:05.935Z,7.74
2017-10-03T04:08:34.731Z,7.36
2017-10-03T04:11:03.966Z,5.94
2017-10-03T04:13:35.520Z,7.46
2017-10-03T04:16:04.896Z,6.70
2017-10-03T04:18:36.523Z,6.40
2017-10-03T04:21:04.815Z,6.40
2017-10-03T04:23:43.355Z,6.24
2017-10-03T04:26:11.656Z,6.22
2017-10-03T04:28:41.844Z,5.62
2017-10-03T04:31:10.135Z,6.60
2017-10-03T04:33:46.606Z,5.50
2017-10-03T04:36:14.896Z,7.50
2017-10-03T04:38:48.319Z,5.12
2017-10-03T04:41:16.571Z,5.22
2017-10-03T04:44:04.241Z,5.46
2017-10-03T04:46:34.103Z,6.84
2017-10-03T04:49:04.469Z,5.92
2017-10-03T04:51:32.756Z,6.92
2017-10-03T04:54:24.948Z,5.62
2017-10-03T04:56:53.243Z,6.72
2017-10-03T04:59:22.516Z,6.92
2017-10-03T05:01:50.775Z,6.12
2017-10-03T05:04:22.240Z,6.02
2017-10-03T05:06:50.490Z,8.02
2017-10-03T05:09:18.795Z,7.28
2017-10-03T05:11:47.059Z,6.62
2017-10-03T05:14:15.324Z,6.58
2017-10-03T05:16:43.620Z,7.24
2017-10-03T05:22:05.941Z,7.28
2017-10-03T05:24:35.515Z,6.84
2017-10-03T05:27:04.200Z,9.56
2017-10-03T05:29:53.433Z,7.86
2017-10-03T05:32:21.688Z,8.68
2017-10-03T05:34:50.925Z,9.20
2017-10-03T05:37:19.189Z,7.76
2017-10-03T05:39:52.958Z,9.18
2017-10-03T05:42:21.221Z,8.40
2017-10-03T05:44:56.690Z,9.06
2017-10-03T05:47:24.946Z,10.94
2017-10-03T05:50:03.907Z,8.86
2017-10-03T05:52:34.043Z,9.30
2017-10-03T05:55:03.676Z,10.62
2017-10-03T05:57:34.036Z,7.80
2017-10-03T06:00:03.634Z,9.46
2017-10-03T06:02:34.206Z,9.94
2017-10-03T06:05:12.064Z,8.68
2017-10-03T06:07:40.356Z,9.32
2017-10-03T06:10:12.551Z,8.58
2017-10-03T06:12:40.811Z,8.42
2017-10-03T06:15:25.788Z,8.56
2017-10-03T06:17:54.035Z,9.78
2017-10-03T06:23:14.920Z,9.54
2017-10-03T06:25:43.174Z,8.92
2017-10-03T06:28:12.681Z,8.74
2017-10-03T06:30:40.952Z,8.08
2017-10-03T06:33:21.336Z,8.24
2017-10-03T06:35:49.603Z,8.32
2017-10-03T06:38:41.662Z,6.40
2017-10-03T06:41:09.960Z,7.40
2017-10-03T06:43:38.264Z,7.90
2017-10-03T06:46:10.410Z,8.26
2017-10-03T06:48:48.760Z,7.86
2017-10-03T06:51:17.047Z,8.28
2017-10-03T06:53:53.831Z,8.14
2017-10-03T06:56:22.120Z,7.62
2017-10-03T06:58:51.323Z,7.22
2017-10-03T07:01:34.205Z,6.84
2017-10-03T07:04:04.034Z,7.66
2017-10-03T07:06:34.346Z,6.40
2017-10-03T07:09:02.657Z,7.16
2017-10-03T07:11:32.007Z,6.80
2017-10-03T07:14:00.280Z,8.40
2017-10-03T07:16:28.571Z,7.54
2017-10-03T07:18:56.825Z,5.84
2017-10-03T07:21:25.088Z,7.20
2017-10-03T07:23:53.362Z,7.10
2017-10-03T07:26:21.648Z,7.14
2017-10-03T07:28:49.915Z,6.04
2017-10-03T07:31:18.217Z,7.82
2017-10-03T07:33:46.516Z,7.68
2017-10-03T07:36:14.772Z,6.58
2017-10-03T07:38:43.048Z,6.68
2017-10-03T07:41:11.303Z,6.02
2017-10-03T07:43:39.592Z,6.78
2017-10-03T07:46:07.864Z,5.74
2017-10-03T07:48:36.154Z,6.60
2017-10-03T07:51:05.508Z,7.28
2017-10-03T07:53:43.733Z,7.60
2017-10-03T07:56:12.034Z,6.14
2017-10-03T07:58:46.836Z,7.06
2017-10-03T08:01:14.354Z,7.34
2017-10-03T08:03:42.668Z,5.70
2017-10-03T08:06:10.926Z,6.12
2017-10-03T08:08:42.464Z,7.10
2017-10-03T08:11:10.747Z,6.54
2017-10-03T08:14:03.951Z,5.98
2017-10-03T08:16:33.427Z,5.78
2017-10-03T08:19:04.721Z,6.54
2017-10-03T08:21:34.092Z,8.28
2017-10-03T08:24:12.672Z,6.18
2017-10-03T08:26:40.967Z,6.56
2017-10-03T08:29:14.828Z,6.52
2017-10-03T08:31:43.119Z,7.30
2017-10-03T08:34:11.383Z,6.38
2017-10-03T08:36:39.642Z,5.88
2017-10-03T08:39:17.892Z,6.66
2017-10-03T08:41:46.156Z,7.16
2017-10-03T08:47:09.012Z,6.40
2017-10-03T08:49:37.306Z,7.08
2017-10-03T08:52:06.541Z,6.60
2017-10-03T08:54:34.801Z,5.84
2017-10-03T08:57:19.922Z,7.32
2017-10-03T08:59:48.170Z,6.38
2017-10-03T09:02:26.401Z,7.82
2017-10-03T09:04:54.662Z,7.42
2017-10-03T09:07:22.956Z,6.32
2017-10-03T09:09:50.461Z,5.62
2017-10-03T09:12:18.975Z,5.78
2017-10-03T09:14:47.261Z,5.68
2017-10-03T09:17:15.515Z,7.38
2017-10-03T09:19:43.786Z,6.12
2017-10-03T09:22:25.669Z,6.12
2017-10-03T09:24:53.939Z,6.22
2017-10-03T09:27:33.863Z,6.50
2017-10-03T09:30:02.754Z,6.44
2017-10-03T09:32:33.956Z,7.00
2017-10-03T09:35:04.032Z,4.50
2017-10-03T09:37:34.330Z,4.06
2017-10-03T09:40:04.376Z,5.04
2017-10-03T09:42:52.195Z,3.80
2017-10-03T09:45:20.452Z,3.90
2017-10-03T09:47:49.679Z,4.98
2017-10-03T09:50:17.980Z,4.50
2017-10-03T09:52:49.163Z,4.60
2017-10-03T09:55:17.451Z,4.72
2017-10-03T09:57:47.744Z,4.66
2017-10-03T10:00:15.992Z,4.70
2017-10-03T10:02:46.295Z,6.14
2017-10-03T10:05:14.587Z,6.20
2017-10-03T10:07:47.460Z,4.48
2017-10-03T10:10:15.744Z,4.80
2017-10-03T10:12:45.028Z,4.82
2017-10-03T10:15:13.271Z,4.42
2017-10-03T10:20:48.349Z,4.82
2017-10-03T10:23:15.884Z,4.36
2017-10-03T10:25:45.116Z,4.86
2017-10-03T10:28:13.373Z,5.38
2017-10-03T10:30:55.424Z,5.46
2017-10-03T10:33:23.684Z,5.04
2017-10-03T10:35:51.949Z,4.82
2017-10-03T10:38:20.246Z,4.60
2017-10-03T10:41:08.268Z,4.78
2017-10-03T10:43:36.585Z,4.50
2017-10-03T10:46:28.020Z,4.42
2017-10-03T10:48:56.283Z,5.24
2017-10-03T10:51:38.539Z,5.18
2017-10-03T10:54:06.836Z,4.82
2017-10-03T10:56:38.993Z,5.70
2017-10-03T10:59:07.287Z,5.46
2017-10-03T11:01:52.677Z,5.38
2017-10-03T11:04:20.935Z,4.68
2017-10-03T11:06:49.191Z,5.00
2017-10-03T11:09:17.460Z,5.22
2017-10-03T11:11:45.727Z,4.80
2017-10-03T11:14:14.024Z,4.90
2017-10-03T11:16:49.236Z,4.54
2017-10-03T11:19:17.532Z,5.08
2017-10-03T11:21:47.714Z,5.36
2017-10-03T11:24:35.131Z,5.00
2017-10-03T11:27:04.416Z,5.20
2017-10-03T11:29:34.200Z,4.42
2017-10-03T11:32:05.550Z,4.92
2017-10-03T11:34:34.999Z,3.98
2017-10-03T11:37:04.049Z,4.86
2017-10-03T11:39:33.556Z,4.34
2017-10-03T11:42:04.359Z,4.66
2017-10-03T11:44:33.615Z,4.10
2017-10-03T11:47:03.926Z,4.46
2017-10-03T11:49:35.623Z,4.10
2017-10-03T11:52:04.878Z,4.56
2017-10-03T11:54:43.363Z,3.86
2017-10-03T11:57:11.620Z,3.76
2017-10-03T11:59:40.117Z,3.72
2017-10-03T12:02:08.407Z,4.78
2017-10-03T12:04:50.123Z,3.92
2017-10-03T12:07:18.410Z,3.56
2017-10-03T12:09:45.902Z,4.06
2017-10-03T12:12:14.155Z,4.04
2017-10-03T12:14:42.482Z,4.22
2017-10-03T12:17:10.731Z,4.12
2017-10-03T12:19:38.992Z,4.00
2017-10-03T12:22:07.275Z,4.16
2017-10-03T12:24:35.523Z,4.32
2017-10-03T12:27:05.184Z,3.84
2017-10-03T12:29:34.390Z,3.82
2017-10-03T12:32:03.666Z,4.60
2017-10-03T12:34:33.306Z,3.30
2017-10-03T12:37:01.570Z,3.86
2017-10-03T12:39:29.842Z,5.16
2017-10-03T12:42:03.337Z,3.82
2017-10-03T12:44:31.648Z,3.50
2017-10-03T12:47:04.110Z,3.82
2017-10-03T12:49:34.015Z,3.82
2017-10-03T12:52:05.619Z,3.50
2017-10-03T12:54:34.387Z,3.50
2017-10-03T12:57:12.842Z,3.64
2017-10-03T12:59:41.184Z,3.80
2017-10-03T13:02:11.494Z,7.32
2017-10-03T13:04:39.775Z,5.42
2017-10-03T13:07:24.801Z,4.24
2017-10-03T13:09:53.055Z,4.20
2017-10-03T13:12:25.243Z,4.54
2017-10-03T13:14:53.512Z,4.08
2017-10-03T13:17:45.324Z,4.24
2017-10-03T13:20:12.848Z,4.10
2017-10-03T13:22:41.126Z,4.26
2017-10-03T13:25:24.282Z,5.00
2017-10-03T13:27:52.535Z,4.66
2017-10-03T13:30:37.276Z,4.46
2017-10-03T13:33:05.527Z,4.42
2017-10-03T13:35:36.807Z,3.94
2017-10-03T13:38:05.069Z,4.40
2017-10-03T13:40:36.883Z,4.00
2017-10-03T13:43:05.183Z,4.80
2017-10-03T13:45:56.889Z,4.50
2017-10-03T13:48:25.166Z,4.06
2017-10-03T13:51:16.727Z,3.62
2017-10-03T13:53:45.030Z,3.24
2017-10-03T13:56:20.415Z,2.64
2017-10-03T13:58:48.694Z,3.68
2017-10-03T14:01:25.519Z,3.86
2017-10-03T14:03:53.772Z,3.44
2017-10-03T14:06:22.063Z,3.40
2017-10-03T14:08:50.315Z,3.44
2017-10-03T14:11:28.711Z,4.26
2017-10-03T14:13:56.968Z,3.32
2017-10-03T14:16:46.874Z,3.36
2017-10-03T14:19:15.152Z,3.66
2017-10-03T14:21:43.412Z,4.28
2017-10-03T14:24:17.978Z,4.34
2017-10-03T14:26:46.231Z,4.20
2017-10-03T14:29:14.536Z,4.50
2017-10-03T14:31:42.819Z,3.84
2017-10-03T14:34:11.093Z,4.54
2017-10-03T14:36:39.384Z,4.26
2017-10-03T14:39:13.335Z,4.88
2017-10-03T14:41:41.631Z,4.34
2017-10-03T14:44:13.516Z,4.72
2017-10-03T14:46:41.813Z,4.58
2017-10-03T14:49:10.103Z,4.80
2017-10-03T14:54:34.120Z,4.82
2017-10-03T14:57:03.548Z,4.92
2017-10-03T14:59:38.977Z,4.80
2017-10-03T15:02:07.227Z,4.26
2017-10-03T15:04:36.432Z,4.60
2017-10-03T15:07:04.702Z,4.22
2017-10-03T15:09:50.020Z,3.78
2017-10-03T15:12:18.267Z,4.58
2017-10-03T15:17:46.756Z,4.48
2017-10-03T15:20:15.052Z,3.54
2017-10-03T15:22:44.233Z,3.82
2017-10-03T15:25:13.360Z,4.00
2017-10-03T15:27:49.914Z,4.28
2017-10-03T15:30:18.203Z,4.68
2017-10-03T15:32:51.989Z,3.84
2017-10-03T15:35:20.275Z,3.98
2017-10-03T15:40:43.671Z,4.50
2017-10-03T15:43:11.930Z,3.94
2017-10-03T15:45:40.183Z,3.88
2017-10-03T15:48:10.391Z,4.16
2017-10-03T15:50:38.646Z,4.56
2017-10-03T15:56:23.454Z,3.64
2017-10-03T15:58:51.739Z,3.34
2017-10-03T16:01:19.999Z,5.46
2017-10-03T16:03:48.263Z,4.50
2017-10-03T16:06:31.600Z,3.56
2017-10-03T16:08:59.868Z,4.14
2017-10-03T16:11:33.608Z,4.04
2017-10-03T16:14:01.864Z,4.88
2017-10-03T16:16:40.532Z,4.86
2017-10-03T16:19:08.791Z,7.12
2017-10-03T16:21:46.683Z,4.14
2017-10-03T16:24:14.950Z,5.50
2017-10-03T16:26:43.217Z,5.58
2017-10-03T16:29:11.504Z,5.66
2017-10-03T16:31:39.771Z,6.56
2017-10-03T16:34:08.050Z,5.26
2017-10-03T16:36:36.299Z,5.14
2017-10-03T16:39:05.482Z,7.26
2017-10-03T16:41:34.106Z,4.50
2017-10-03T16:44:04.586Z,4.36
2017-10-03T16:46:50.002Z,4.62
2017-10-03T16:49:18.281Z,6.40
2017-10-03T16:51:46.535Z,6.28
2017-10-03T16:54:14.823Z,5.18
2017-10-03T16:57:06.869Z,5.88
2017-10-03T16:59:35.163Z,5.48
2017-10-03T17:02:04.296Z,7.46
2017-10-03T17:04:33.584Z,4.24
2017-10-03T17:07:02.003Z,5.42
2017-10-03T17:09:30.300Z,5.02
2017-10-03T17:11:58.561Z,5.26
2017-10-03T17:14:26.855Z,5.04
2017-10-03T17:16:58.340Z,4.90
2017-10-03T17:19:26.630Z,5.86
2017-10-03T17:21:54.932Z,6.50
2017-10-03T17:24:23.183Z,6.40
2017-10-03T17:26:51.435Z,6.34
2017-10-03T17:29:18.964Z,5.40
2017-10-03T17:31:47.211Z,5.38
2017-10-03T17:34:15.459Z,5.22
2017-10-03T17:36:43.750Z,5.88
2017-10-03T17:39:12.008Z,6.16
2017-10-03T17:41:40.295Z,5.48
2017-10-03T17:44:10.524Z,6.68
2017-10-03T17:46:38.824Z,6.10
2017-10-03T17:49:12.361Z,5.72
2017-10-03T17:51:40.651Z,6.86
2017-10-03T17:57:05.771Z,7.00
2017-10-03T17:59:35.176Z,7.64
2017-10-03T18:02:08.779Z,6.80
2017-10-03T18:04:37.082Z,5.94
2017-10-03T18:10:09.060Z,5.32
2017-10-03T18:12:37.345Z,5.30
2017-10-03T18:15:16.228Z,5.32
2017-10-03T18:17:44.524Z,6.16
2017-10-03T18:20:16.590Z,7.82
2017-10-03T18:22:44.884Z,5.90
2017-10-03T18:28:10.221Z,6.22
2017-10-03T18:30:38.520Z,6.42
2017-10-03T18:33:12.159Z,7.00
2017-10-03T18:35:40.442Z,6.84
2017-10-03T18:38:23.750Z,7.72
2017-10-03T18:40:52.003Z,7.52
2017-10-03T18:43:25.575Z,6.82
2017-10-03T18:45:53.837Z,7.52
2017-10-03T18:48:29.368Z,6.80
2017-10-03T18:50:57.655Z,7.20
2017-10-03T18:53:27.825Z,7.66
2017-10-03T18:55:56.124Z,6.70
2017-10-03T18:58:27.917Z,8.14
2017-10-03T19:00:56.184Z,6.40
2017-10-03T19:03:34.948Z,6.12
2017-10-03T19:06:04.171Z,7.48
2017-10-03T19:08:40.762Z,7.20
2017-10-03T19:11:09.072Z,6.50
2017-10-03T19:13:39.310Z,6.10
2017-10-03T19:16:07.643Z,8.00
2017-10-03T19:18:35.192Z,7.22
2017-10-03T19:21:11.575Z,6.64
2017-10-03T19:23:39.869Z,6.86
2017-10-03T19:26:16.736Z,7.46
2017-10-03T19:28:44.999Z,6.58
2017-10-03T19:31:13.256Z,6.96
2017-10-03T19:33:41.550Z,7.70
2017-10-03T19:36:09.812Z,6.76
2017-10-03T19:38:38.062Z,5.38
2017-10-03T19:46:58.371Z,6.50
2017-10-03T19:49:26.630Z,6.10
2017-10-03T19:51:58.507Z,6.70
2017-10-03T19:54:26.803Z,5.40
2017-10-03T19:56:55.081Z,5.26
2017-10-03T19:59:23.362Z,6.00
2017-10-03T20:02:03.275Z,5.38
2017-10-03T20:04:33.439Z,4.88
2017-10-03T20:07:03.390Z,5.62
2017-10-03T20:09:39.836Z,4.92
2017-10-03T20:12:08.111Z,6.00
2017-10-03T20:14:40.185Z,6.34
2017-10-03T20:17:08.434Z,6.00
2017-10-03T20:19:36.706Z,5.28
2017-10-03T20:22:05.354Z,6.10
2017-10-03T20:24:41.156Z,6.26
2017-10-03T20:27:09.447Z,5.38
2017-10-03T20:29:37.734Z,5.10
2017-10-03T20:32:09.299Z,5.32
2017-10-03T20:34:37.591Z,4.94
2017-10-03T20:37:08.060Z,4.70
2017-10-03T20:39:35.551Z,4.66
2017-10-03T20:42:05.480Z,4.30
2017-10-03T20:44:35.144Z,4.64
2017-10-03T20:47:18.002Z,3.76
2017-10-03T20:49:46.331Z,4.32
2017-10-03T20:52:16.558Z,4.24
2017-10-03T20:54:44.812Z,4.54
2017-10-03T20:57:18.697Z,5.10
2017-10-03T20:59:46.989Z,4.60
2017-10-03T21:02:30.232Z,4.62
2017-10-03T21:04:58.488Z,4.48
2017-10-03T21:07:26.776Z,4.14
2017-10-03T21:09:55.064Z,4.42
2017-10-03T21:12:31.437Z,4.50
2017-10-03T21:14:59.686Z,4.58
2017-10-03T21:17:47.932Z,5.28
2017-10-03T21:20:16.183Z,4.60
2017-10-03T21:22:46.516Z,5.18
2017-10-03T21:25:14.770Z,4.48
2017-10-03T21:27:44.011Z,4.68
2017-10-03T21:30:12.300Z,4.76
2017-10-03T21:32:40.582Z,5.82
2017-10-03T21:35:08.868Z,5.66
2017-10-03T21:37:51.733Z,4.96
2017-10-03T21:40:19.215Z,4.56
2017-10-03T21:43:02.078Z,5.16
2017-10-03T21:45:30.328Z,5.88
2017-10-03T21:48:11.924Z,4.40
2017-10-03T21:50:40.212Z,4.54
2017-10-03T21:53:13.784Z,4.80
2017-10-03T21:55:42.073Z,5.06
2017-10-03T21:58:20.636Z,6.24
2017-10-03T22:00:48.892Z,5.60
2017-10-03T22:03:18.168Z,5.06
2017-10-03T22:05:46.447Z,5.24
2017-10-03T22:11:25.944Z,5.24
2017-10-03T22:13:54.204Z,4.88
2017-10-03T22:16:34.109Z,5.48
2017-10-03T22:19:03.734Z,4.30
2017-10-03T22:21:35.716Z,5.12
2017-10-03T22:24:05.234Z,6.14
2017-10-03T22:26:45.611Z,6.24
2017-10-03T22:29:13.864Z,5.10
2017-10-03T22:32:06.040Z,5.28
2017-10-03T22:34:35.111Z,5.08
2017-10-03T22:37:04.995Z,4.54
2017-10-03T22:39:34.181Z,5.62
2017-10-03T22:42:04.582Z,5.66
2017-10-03T22:44:42.558Z,5.32
2017-10-03T22:47:10.865Z,5.58
2017-10-03T22:49:45.819Z,4.78
2017-10-03T22:52:19.706Z,5.20
2017-10-03T22:54:53.212Z,5.38
2017-10-03T22:57:21.495Z,5.30
2017-10-03T22:59:49.780Z,6.56
2017-10-03T23:02:18.031Z,5.78
2017-10-03T23:04:46.330Z,6.72
2017-10-03T23:07:14.587Z,5.72
2017-10-03T23:09:42.921Z,5.70
2017-10-03T23:12:11.180Z,5.12
2017-10-03T23:14:49.551Z,4.98
2017-10-03T23:17:17.808Z,6.10
2017-10-03T23:19:49.984Z,6.04
2017-10-03T23:22:18.231Z,4.62
2017-10-03T23:27:39.704Z,5.30
2017-10-03T23:30:07.991Z,5.08
2017-10-03T23:32:36.248Z,5.88
2017-10-03T23:35:05.621Z,5.82
2017-10-03T23:37:33.523Z,5.10
2017-10-03T23:40:01.772Z,5.38
2017-10-03T23:42:35.630Z,5.04
2017-10-03T23:45:05.151Z,5.84
2017-10-03T23:47:34.727Z,5.38
2017-10-03T23:50:04.164Z,7.46
2017-10-03T23:52:40.720Z,5.86
2017-10-03T23:55:08.976Z,4.96
2017-10-03T23:57:47.051Z,5.88
